sensor_id;sensor_type;location;lat;lon;timestamp;pressure;altitude;pressure_sealevel;temperature;humidity
58243;BME280;50118;53.232;8.252;2023-02-22T00:00:21;101490.34;;;7.44;100.00
58243;BME280;50118;53.232;8.252;2023-02-22T00:02:50;101493.91;;;7.43;100.00
58243;BME280;50118;53.232;8.252;2023-02-22T00:05:16;101490.44;;;7.43;100.00
58243;BME280;50118;53.232;8.252;2023-02-22T00:07:47;101490.34;;;7.44;100.00
58243;BME280;50118;53.232;8.252;2023-02-22T00:10:14;101493.50;;;7.50;100.00
58243;BME280;50118;53.232;8.252;2023-02-22T00:12:45;101487.13;;;7.52;100.00
58243;BME280;50118;53.232;8.252;2023-02-22T00:15:14;101486.72;;;7.45;100.00
58243;BME280;50118;53.232;8.252;2023-02-22T00:17:39;101486.19;;;7.40;100.00
58243;BME280;50118;53.232;8.252;2023-02-22T00:20:06;101487.16;;;7.39;100.00
58243;BME280;50118;53.232;8.252;2023-02-22T00:22:32;101483.75;;;7.37;100.00
58243;BME280;50118;53.232;8.252;2023-02-22T00:24:58;101481.94;;;7.38;100.00
58243;BME280;50118;53.232;8.252;2023-02-22T00:27:23;101484.50;;;7.39;100.00
58243;BME280;50118;53.232;8.252;2023-02-22T00:29:49;101474.94;;;7.37;100.00
58243;BME280;50118;53.232;8.252;2023-02-22T00:32:14;101481.94;;;7.38;100.00
58243;BME280;50118;53.232;8.252;2023-02-22T00:34:40;101475.03;;;7.35;100.00
58243;BME280;50118;53.232;8.252;2023-02-22T00:37:08;101475.91;;;7.36;100.00
58243;BME280;50118;53.232;8.252;2023-02-22T00:39:34;101476.75;;;7.36;100.00
58243;BME280;50118;53.232;8.252;2023-02-22T00:41:59;101468.06;;;7.34;100.00
58243;BME280;50118;53.232;8.252;2023-02-22T00:44:24;101473.38;;;7.34;100.00
58243;BME280;50118;53.232;8.252;2023-02-22T00:46:51;101483.00;;;7.35;100.00
58243;BME280;50118;53.232;8.252;2023-02-22T00:49:17;101479.09;;;7.41;100.00
58243;BME280;50118;53.232;8.252;2023-02-22T00:51:42;101474.84;;;7.38;100.00
58243;BME280;50118;53.232;8.252;2023-02-22T00:54:08;101469.84;;;7.34;100.00
58243;BME280;50118;53.232;8.252;2023-02-22T00:56:35;101470.91;;;7.31;100.00
58243;BME280;50118;53.232;8.252;2023-02-22T00:59:02;101465.84;;;7.28;100.00
58243;BME280;50118;53.232;8.252;2023-02-22T01:01:28;101457.88;;;7.28;100.00
58243;BME280;50118;53.232;8.252;2023-02-22T01:03:53;101457.88;;;7.28;100.00
58243;BME280;50118;53.232;8.252;2023-02-22T01:06:19;101462.97;;;7.31;100.00
58243;BME280;50118;53.232;8.252;2023-02-22T01:08:46;101461.06;;;7.33;100.00
58243;BME280;50118;53.232;8.252;2023-02-22T01:11:12;101459.78;;;7.39;100.00
58243;BME280;50118;53.232;8.252;2023-02-22T01:13:38;101444.31;;;7.33;100.00
58243;BME280;50118;53.232;8.252;2023-02-22T01:16:04;101447.19;;;7.29;100.00
58243;BME280;50118;53.232;8.252;2023-02-22T01:18:36;101443.69;;;7.29;100.00
58243;BME280;50118;53.232;8.252;2023-02-22T01:21:03;101440.28;;;7.27;100.00
58243;BME280;50118;53.232;8.252;2023-02-22T01:23:29;101442.19;;;7.25;100.00
58243;BME280;50118;53.232;8.252;2023-02-22T01:25:55;101431.69;;;7.23;100.00
58243;BME280;50118;53.232;8.252;2023-02-22T01:28:21;101445.56;;;7.27;100.00
58243;BME280;50118;53.232;8.252;2023-02-22T01:30:47;101438.81;;;7.23;100.00
58243;BME280;50118;53.232;8.252;2023-02-22T01:33:13;101435.22;;;7.24;100.00
58243;BME280;50118;53.232;8.252;2023-02-22T01:35:40;101435.22;;;7.24;100.00
58243;BME280;50118;53.232;8.252;2023-02-22T01:38:06;101430.66;;;7.26;100.00
58243;BME280;50118;53.232;8.252;2023-02-22T01:40:41;101421.34;;;7.20;100.00
58243;BME280;50118;53.232;8.252;2023-02-22T01:43:31;101434.69;;;7.19;100.00
58243;BME280;50118;53.232;8.252;2023-02-22T01:46:06;101423.22;;;7.18;100.00
58243;BME280;50118;53.232;8.252;2023-02-22T01:51:27;101419.72;;;7.18;100.00
58243;BME280;50118;53.232;8.252;2023-02-22T01:54:05;101413.38;;;7.20;100.00
58243;BME280;50118;53.232;8.252;2023-02-22T01:56:33;101409.03;;;7.19;100.00
58243;BME280;50118;53.232;8.252;2023-02-22T01:59:03;101411.38;;;7.24;100.00
58243;BME280;50118;53.232;8.252;2023-02-22T02:01:31;101408.91;;;7.21;100.00
58243;BME280;50118;53.232;8.252;2023-02-22T02:04:00;101422.38;;;7.18;100.00
58243;BME280;50118;53.232;8.252;2023-02-22T02:06:31;101416.75;;;7.22;100.00
58243;BME280;50118;53.232;8.252;2023-02-22T02:09:03;101410.84;;;7.19;100.00
58243;BME280;50118;53.232;8.252;2023-02-22T02:11:29;101416.09;;;7.32;100.00
58243;BME280;50118;53.232;8.252;2023-02-22T02:13:57;101413.03;;;7.25;100.00
58243;BME280;50118;53.232;8.252;2023-02-22T02:19:10;101406.38;;;7.19;100.00
58243;BME280;50118;53.232;8.252;2023-02-22T02:21:44;101413.34;;;7.33;100.00
58243;BME280;50118;53.232;8.252;2023-02-22T02:24:50;101407.84;;;7.36;100.00
58243;BME280;50118;53.232;8.252;2023-02-22T02:27:22;101414.19;;;7.34;100.00
58243;BME280;50118;53.232;8.252;2023-02-22T02:32:50;101398.94;;;7.24;100.00
58243;BME280;50118;53.232;8.252;2023-02-22T02:35:24;101397.66;;;7.30;100.00
58243;BME280;50118;53.232;8.252;2023-02-22T02:37:58;101397.88;;;7.27;100.00
58243;BME280;50118;53.232;8.252;2023-02-22T02:40:40;101391.09;;;7.23;100.00
58243;BME280;50118;53.232;8.252;2023-02-22T02:43:19;101386.13;;;7.18;100.00
58243;BME280;50118;53.232;8.252;2023-02-22T02:45:54;101393.22;;;7.18;100.00
58243;BME280;50118;53.232;8.252;2023-02-22T02:48:26;101379.88;;;7.19;100.00
58243;BME280;50118;53.232;8.252;2023-02-22T02:50:55;101376.50;;;7.17;100.00
58243;BME280;50118;53.232;8.252;2023-02-22T02:53:26;101383.38;;;7.20;100.00
58243;BME280;50118;53.232;8.252;2023-02-22T02:55:54;101378.16;;;7.18;100.00
58243;BME280;50118;53.232;8.252;2023-02-22T02:58:21;101372.25;;;7.15;100.00
58243;BME280;50118;53.232;8.252;2023-02-22T03:00:50;101373.44;;;7.10;100.00
58243;BME280;50118;53.232;8.252;2023-02-22T03:09:01;101362.09;;;7.08;100.00
58243;BME280;50118;53.232;8.252;2023-02-22T03:11:45;101361.31;;;7.06;100.00
58243;BME280;50118;53.232;8.252;2023-02-22T03:14:33;101351.25;;;7.11;100.00
58243;BME280;50118;53.232;8.252;2023-02-22T03:20:00;101356.69;;;7.10;100.00
58243;BME280;50118;53.232;8.252;2023-02-22T03:22:37;101352.13;;;7.12;100.00
58243;BME280;50118;53.232;8.252;2023-02-22T03:25:14;101359.44;;;7.08;100.00
58243;BME280;50118;53.232;8.252;2023-02-22T03:27:46;101354.47;;;7.04;100.00
58243;BME280;50118;53.232;8.252;2023-02-22T03:30:22;101351.78;;;7.17;100.00
58243;BME280;50118;53.232;8.252;2023-02-22T03:32:52;101357.63;;;7.09;100.00
58243;BME280;50118;53.232;8.252;2023-02-22T03:35:23;101347.34;;;7.04;100.00
58243;BME280;50118;53.232;8.252;2023-02-22T03:37:53;101351.72;;;7.05;100.00
58243;BME280;50118;53.232;8.252;2023-02-22T03:40:32;101355.28;;;7.04;100.00
58243;BME280;50118;53.232;8.252;2023-02-22T03:43:07;101353.38;;;7.06;100.00
58243;BME280;50118;53.232;8.252;2023-02-22T03:45:33;101362.50;;;7.02;100.00
58243;BME280;50118;53.232;8.252;2023-02-22T03:48:07;101353.94;;;6.99;100.00
58243;BME280;50118;53.232;8.252;2023-02-22T03:50:36;101356.47;;;7.00;100.00
58243;BME280;50118;53.232;8.252;2023-02-22T03:53:03;101360.91;;;7.00;100.00
58243;BME280;50118;53.232;8.252;2023-02-22T03:55:29;101354.13;;;6.96;100.00
58243;BME280;50118;53.232;8.252;2023-02-22T03:58:00;101348.94;;;6.94;100.00
58243;BME280;50118;53.232;8.252;2023-02-22T04:00:29;101351.50;;;6.96;100.00
58243;BME280;50118;53.232;8.252;2023-02-22T04:02:56;101352.31;;;6.96;100.00
58243;BME280;50118;53.232;8.252;2023-02-22T04:05:22;101352.56;;;6.93;100.00
58243;BME280;50118;53.232;8.252;2023-02-22T04:07:50;101347.47;;;6.90;100.00
58243;BME280;50118;53.232;8.252;2023-02-22T04:10:16;101346.59;;;6.89;100.00
58243;BME280;50118;53.232;8.252;2023-02-22T04:12:41;101350.44;;;6.98;100.00
58243;BME280;50118;53.232;8.252;2023-02-22T04:15:08;101349.69;;;6.96;100.00
58243;BME280;50118;53.232;8.252;2023-02-22T04:17:34;101343.03;;;6.90;100.00
58243;BME280;50118;53.232;8.252;2023-02-22T04:19:59;101345.78;;;6.89;100.00
58243;BME280;50118;53.232;8.252;2023-02-22T04:22:24;101340.69;;;6.86;100.00
58243;BME280;50118;53.232;8.252;2023-02-22T04:24:50;101341.56;;;6.86;100.00
58243;BME280;50118;53.232;8.252;2023-02-22T04:27:15;101341.97;;;6.93;100.00
58243;BME280;50118;53.232;8.252;2023-02-22T04:29:41;101337.00;;;6.88;100.00
58243;BME280;50118;53.232;8.252;2023-02-22T04:32:07;101340.25;;;6.92;100.00
58243;BME280;50118;53.232;8.252;2023-02-22T04:34:32;101335.91;;;6.91;100.00
58243;BME280;50118;53.232;8.252;2023-02-22T04:36:58;101337.09;;;6.87;100.00
58243;BME280;50118;53.232;8.252;2023-02-22T04:39:23;101331.59;;;6.90;100.00
58243;BME280;50118;53.232;8.252;2023-02-22T04:41:49;101328.22;;;6.88;100.00
58243;BME280;50118;53.232;8.252;2023-02-22T04:44:14;101334.56;;;6.98;100.00
58243;BME280;50118;53.232;8.252;2023-02-22T04:46:40;101326.28;;;6.90;100.00
58243;BME280;50118;53.232;8.252;2023-02-22T04:49:05;101333.25;;;6.91;100.00
58243;BME280;50118;53.232;8.252;2023-02-22T04:51:31;101329.16;;;6.87;100.00
58243;BME280;50118;53.232;8.252;2023-02-22T04:53:56;101319.50;;;6.86;100.00
58243;BME280;50118;53.232;8.252;2023-02-22T04:56:21;101321.63;;;6.81;100.00
58243;BME280;50118;53.232;8.252;2023-02-22T04:58:47;101319.94;;;6.80;100.00
58243;BME280;50118;53.232;8.252;2023-02-22T05:01:14;101316.56;;;6.78;100.00
58243;BME280;50118;53.232;8.252;2023-02-22T05:03:40;101312.31;;;6.75;100.00
58243;BME280;50118;53.232;8.252;2023-02-22T05:06:06;101307.84;;;6.76;100.00
58243;BME280;50118;53.232;8.252;2023-02-22T05:08:31;101304.25;;;6.77;100.00
58243;BME280;50118;53.232;8.252;2023-02-22T05:10:57;101302.25;;;6.80;100.00
58243;BME280;50118;53.232;8.252;2023-02-22T05:13:22;101301.50;;;6.78;100.00
58243;BME280;50118;53.232;8.252;2023-02-22T05:15:48;101303.19;;;6.79;100.00
58243;BME280;50118;53.232;8.252;2023-02-22T05:18:13;101303.84;;;6.83;100.00
58243;BME280;50118;53.232;8.252;2023-02-22T05:20:39;101304.06;;;6.80;100.00
58243;BME280;50118;53.232;8.252;2023-02-22T05:23:05;101296.63;;;6.85;100.00
58243;BME280;50118;53.232;8.252;2023-02-22T05:25:30;101300.66;;;6.78;100.00
58243;BME280;50118;53.232;8.252;2023-02-22T05:27:59;101291.97;;;6.76;100.00
58243;BME280;50118;53.232;8.252;2023-02-22T05:30:30;101296.00;;;6.81;100.00
58243;BME280;50118;53.232;8.252;2023-02-22T05:32:56;101289.53;;;6.85;100.00
58243;BME280;50118;53.232;8.252;2023-02-22T05:35:23;101289.44;;;6.87;100.00
58243;BME280;50118;53.232;8.252;2023-02-22T05:37:48;101287.50;;;6.89;100.00
58243;BME280;50118;53.232;8.252;2023-02-22T05:40:18;101289.44;;;6.87;100.00
58243;BME280;50118;53.232;8.252;2023-02-22T05:42:45;101279.25;;;6.81;100.00
58243;BME280;50118;53.232;8.252;2023-02-22T05:45:15;101275.88;;;6.79;100.00
58243;BME280;50118;53.232;8.252;2023-02-22T05:47:41;101272.69;;;6.73;100.00
58243;BME280;50118;53.232;8.252;2023-02-22T05:50:07;101256.81;;;6.73;100.00
58243;BME280;50118;53.232;8.252;2023-02-22T05:52:32;101267.41;;;6.73;100.00
58243;BME280;50118;53.232;8.252;2023-02-22T05:54:58;101269.31;;;6.71;100.00
58243;BME280;50118;53.232;8.252;2023-02-22T05:57:23;101265.94;;;6.69;100.00
58243;BME280;50118;53.232;8.252;2023-02-22T05:59:52;101262.75;;;6.64;100.00
58243;BME280;50118;53.232;8.252;2023-02-22T06:02:17;101262.53;;;6.67;100.00
58243;BME280;50118;53.232;8.252;2023-02-22T06:04:44;101264.84;;;6.72;100.00
58243;BME280;50118;53.232;8.252;2023-02-22T06:07:09;101266.16;;;6.66;100.00
58243;BME280;50118;53.232;8.252;2023-02-22T06:09:34;101267.81;;;6.67;100.00
58243;BME280;50118;53.232;8.252;2023-02-22T06:12:00;101267.81;;;6.67;100.00
58243;BME280;50118;53.232;8.252;2023-02-22T06:14:25;101272.06;;;6.70;100.00
58243;BME280;50118;53.232;8.252;2023-02-22T06:16:54;101267.81;;;6.67;100.00
58243;BME280;50118;53.232;8.252;2023-02-22T06:19:19;101269.72;;;6.65;100.00
58243;BME280;50118;53.232;8.252;2023-02-22T06:21:52;101271.44;;;6.66;100.00
58243;BME280;50118;53.232;8.252;2023-02-22T06:24:18;101269.72;;;6.65;100.00
58243;BME280;50118;53.232;8.252;2023-02-22T06:26:44;101268.25;;;6.61;100.00
58243;BME280;50118;53.232;8.252;2023-02-22T06:29:09;101259.34;;;6.62;100.00
58243;BME280;50118;53.232;8.252;2023-02-22T06:31:35;101258.94;;;6.68;100.00
58243;BME280;50118;53.232;8.252;2023-02-22T06:34:01;101258.94;;;6.68;100.00
58243;BME280;50118;53.232;8.252;2023-02-22T06:36:26;101262.94;;;6.74;100.00
58243;BME280;50118;53.232;8.252;2023-02-22T06:38:52;101256.81;;;6.73;100.00
58243;BME280;50118;53.232;8.252;2023-02-22T06:41:17;101252.78;;;6.81;100.00
58243;BME280;50118;53.232;8.252;2023-02-22T06:43:42;101255.09;;;6.85;100.00
58243;BME280;50118;53.232;8.252;2023-02-22T06:46:09;101256.59;;;6.77;100.00
58243;BME280;50118;53.232;8.252;2023-02-22T06:48:38;101249.81;;;6.85;100.00
58243;BME280;50118;53.232;8.252;2023-02-22T06:51:06;101251.94;;;6.80;100.00
58243;BME280;50118;53.232;8.252;2023-02-22T06:53:33;101261.91;;;6.77;100.00
58243;BME280;50118;53.232;8.252;2023-02-22T06:55:58;101256.81;;;6.86;100.00
58243;BME280;50118;53.232;8.252;2023-02-22T06:58:24;101252.03;;;6.79;100.00
58243;BME280;50118;53.232;8.252;2023-02-22T07:00:50;101251.28;;;6.89;100.00
58243;BME280;50118;53.232;8.252;2023-02-22T07:03:15;101260.09;;;6.90;100.00
58243;BME280;50118;53.232;8.252;2023-02-22T07:05:41;101251.78;;;6.95;100.00
58243;BME280;50118;53.232;8.252;2023-02-22T07:08:06;101253.09;;;6.89;100.00
58243;BME280;50118;53.232;8.252;2023-02-22T07:10:34;101258.69;;;6.84;100.00
58243;BME280;50118;53.232;8.252;2023-02-22T07:13:00;101256.03;;;6.84;100.00
58243;BME280;50118;53.232;8.252;2023-02-22T07:15:27;101258.06;;;6.94;100.00
58243;BME280;50118;53.232;8.252;2023-02-22T07:17:53;101256.25;;;6.94;100.00
58243;BME280;50118;53.232;8.252;2023-02-22T07:20:20;101256.75;;;6.99;100.00
58243;BME280;50118;53.232;8.252;2023-02-22T07:22:47;101256.25;;;6.94;100.00
58243;BME280;50118;53.232;8.252;2023-02-22T07:25:12;101260.59;;;6.82;100.00
58243;BME280;50118;53.232;8.252;2023-02-22T07:27:39;101259.88;;;6.93;100.00
58243;BME280;50118;53.232;8.252;2023-02-22T07:30:07;101257.44;;;6.90;100.00
58243;BME280;50118;53.232;8.252;2023-02-22T07:32:33;101255.09;;;6.98;100.00
58243;BME280;50118;53.232;8.252;2023-02-22T07:34:58;101250.41;;;7.02;100.00
58243;BME280;50118;53.232;8.252;2023-02-22T07:37:26;101247.19;;;7.09;100.00
58243;BME280;50118;53.232;8.252;2023-02-22T07:39:51;101251.78;;;7.07;100.00
58243;BME280;50118;53.232;8.252;2023-02-22T07:42:16;101247.19;;;7.09;100.00
58243;BME280;50118;53.232;8.252;2023-02-22T07:44:42;101250.16;;;7.18;100.00
58243;BME280;50118;53.232;8.252;2023-02-22T07:47:07;101250.84;;;7.08;100.00
58243;BME280;50118;53.232;8.252;2023-02-22T07:49:34;101255.66;;;7.15;100.00
58243;BME280;50118;53.232;8.252;2023-02-22T07:52:00;101253.22;;;7.11;100.00
58243;BME280;50118;53.232;8.252;2023-02-22T07:54:26;101253.63;;;7.18;100.00
58243;BME280;50118;53.232;8.252;2023-02-22T07:56:51;101242.06;;;7.32;100.00
58243;BME280;50118;53.232;8.252;2023-02-22T07:59:17;101245.22;;;7.37;100.00
58243;BME280;50118;53.232;8.252;2023-02-22T08:01:43;101241.16;;;7.44;100.00
58243;BME280;50118;53.232;8.252;2023-02-22T08:04:08;101243.00;;;7.31;100.00
58243;BME280;50118;53.232;8.252;2023-02-22T08:06:34;101244.53;;;7.46;100.00
58243;BME280;50118;53.232;8.252;2023-02-22T08:09:00;101232.63;;;7.52;100.00
58243;BME280;50118;53.232;8.252;2023-02-22T08:11:25;101232.81;;;7.62;100.00
58243;BME280;50118;53.232;8.252;2023-02-22T08:13:51;101233.59;;;7.75;100.00
58243;BME280;50118;53.232;8.252;2023-02-22T08:16:16;101236.41;;;7.85;100.00
58243;BME280;50118;53.232;8.252;2023-02-22T08:18:41;101233.16;;;7.93;100.00
58243;BME280;50118;53.232;8.252;2023-02-22T08:21:07;101224.50;;;8.02;100.00
58243;BME280;50118;53.232;8.252;2023-02-22T08:23:33;101224.97;;;7.96;100.00
58243;BME280;50118;53.232;8.252;2023-02-22T08:26:09;101222.69;;;8.14;100.00
58243;BME280;50118;53.232;8.252;2023-02-22T08:28:39;101226.50;;;8.22;100.00
58243;BME280;50118;53.232;8.252;2023-02-22T08:31:05;101220.69;;;8.29;100.00
58243;BME280;50118;53.232;8.252;2023-02-22T08:33:31;101212.25;;;8.12;100.00
58243;BME280;50118;53.232;8.252;2023-02-22T08:35:57;101215.88;;;8.22;100.00
58243;BME280;50118;53.232;8.252;2023-02-22T08:38:26;101217.44;;;8.36;100.00
58243;BME280;50118;53.232;8.252;2023-02-22T08:40:52;101210.56;;;8.34;100.00
58243;BME280;50118;53.232;8.252;2023-02-22T08:43:19;101216.25;;;8.40;100.00
58243;BME280;50118;53.232;8.252;2023-02-22T08:45:45;101218.28;;;8.37;100.00
58243;BME280;50118;53.232;8.252;2023-02-22T08:48:12;101223.38;;;8.40;100.00
58243;BME280;50118;53.232;8.252;2023-02-22T08:50:38;101219.28;;;8.47;100.00
58243;BME280;50118;53.232;8.252;2023-02-22T08:53:07;101214.13;;;8.57;100.00
58243;BME280;50118;53.232;8.252;2023-02-22T08:55:36;101210.38;;;8.71;100.00
58243;BME280;50118;53.232;8.252;2023-02-22T08:58:03;101207.13;;;8.78;100.00
58243;BME280;50118;53.232;8.252;2023-02-22T09:00:30;101207.72;;;8.82;100.00
58243;BME280;50118;53.232;8.252;2023-02-22T09:03:00;101211.09;;;8.84;100.00
58243;BME280;50118;53.232;8.252;2023-02-22T09:05:26;101207.69;;;8.93;100.00
58243;BME280;50118;53.232;8.252;2023-02-22T09:07:52;101212.53;;;8.88;100.00
58243;BME280;50118;53.232;8.252;2023-02-22T09:10:21;101203.19;;;9.05;100.00
58243;BME280;50118;53.232;8.252;2023-02-22T09:12:52;101201.13;;;9.09;100.00
58243;BME280;50118;53.232;8.252;2023-02-22T09:15:20;101195.56;;;9.12;100.00
58243;BME280;50118;53.232;8.252;2023-02-22T09:17:45;101199.06;;;9.12;100.00
58243;BME280;50118;53.232;8.252;2023-02-22T09:20:11;101201.09;;;9.31;100.00
58243;BME280;50118;53.232;8.252;2023-02-22T09:22:37;101197.19;;;9.35;100.00
58243;BME280;50118;53.232;8.252;2023-02-22T09:25:04;101199.22;;;9.11;100.00
58243;BME280;50118;53.232;8.252;2023-02-22T09:27:30;101192.31;;;9.08;100.00
58243;BME280;50118;53.232;8.252;2023-02-22T09:29:55;101200.88;;;9.23;100.00
58243;BME280;50118;53.232;8.252;2023-02-22T09:32:24;101189.88;;;9.16;100.00
58243;BME280;50118;53.232;8.252;2023-02-22T09:34:52;101188.53;;;9.22;100.00
58243;BME280;50118;53.232;8.252;2023-02-22T09:37:18;101185.47;;;9.38;100.00
58243;BME280;50118;53.232;8.252;2023-02-22T09:39:44;101192.34;;;9.41;100.00
58243;BME280;50118;53.232;8.252;2023-02-22T09:45:09;101176.88;;;9.34;100.00
58243;BME280;50118;53.232;8.252;2023-02-22T09:47:45;101175.72;;;9.27;100.00
58243;BME280;50118;53.232;8.252;2023-02-22T09:50:19;101188.44;;;9.45;100.00
58243;BME280;50118;53.232;8.252;2023-02-22T09:58:02;101190.03;;;9.68;100.00
58243;BME280;50118;53.232;8.252;2023-02-22T10:00:32;101176.88;;;9.34;100.00
58243;BME280;50118;53.232;8.252;2023-02-22T10:06:09;101190.38;;;9.54;100.00
58243;BME280;50118;53.232;8.252;2023-02-22T10:08:35;101177.69;;;9.46;100.00
58243;BME280;50118;53.232;8.252;2023-02-22T10:11:36;101177.69;;;9.46;100.00
58243;BME280;50118;53.232;8.252;2023-02-22T10:14:44;101177.81;;;9.45;100.00
58243;BME280;50118;53.232;8.252;2023-02-22T10:25:33;101158.63;;;10.04;100.00
58243;BME280;50118;53.232;8.252;2023-02-22T10:28:12;101157.44;;;10.39;100.00
58243;BME280;50118;53.232;8.252;2023-02-22T10:30:45;101154.69;;;9.99;100.00
58243;BME280;50118;53.232;8.252;2023-02-22T10:33:37;101156.97;;;10.65;100.00
58243;BME280;50118;53.232;8.252;2023-02-22T10:36:04;101148.53;;;10.60;100.00
58243;BME280;50118;53.232;8.252;2023-02-22T10:38:33;101155.31;;;10.74;100.00
58243;BME280;50118;53.232;8.252;2023-02-22T10:41:35;101149.94;;;10.64;100.00
58243;BME280;50118;53.232;8.252;2023-02-22T10:44:04;101140.38;;;11.02;100.00
58243;BME280;50118;53.232;8.252;2023-02-22T10:46:31;101139.81;;;11.08;100.00
58243;BME280;50118;53.232;8.252;2023-02-22T10:49:02;101142.13;;;10.72;100.00
58243;BME280;50118;53.232;8.252;2023-02-22T10:51:29;101138.84;;;10.59;100.00
58243;BME280;50118;53.232;8.252;2023-02-22T10:56:49;101123.97;;;10.97;100.00
58243;BME280;50118;53.232;8.252;2023-02-22T10:59:37;101127.59;;;10.96;100.00
58243;BME280;50118;53.232;8.252;2023-02-22T11:04:49;101121.00;;;11.19;100.00
58243;BME280;50118;53.232;8.252;2023-02-22T11:07:41;101124.53;;;11.10;100.00
58243;BME280;50118;53.232;8.252;2023-02-22T11:10:07;101127.31;;;11.18;100.00
58243;BME280;50118;53.232;8.252;2023-02-22T11:12:39;101123.63;;;10.80;100.00
58243;BME280;50118;53.232;8.252;2023-02-22T11:17:45;101112.16;;;11.38;100.00
58243;BME280;50118;53.232;8.252;2023-02-22T11:20:24;101118.06;;;11.42;100.00
58243;BME280;50118;53.232;8.252;2023-02-22T11:22:56;101108.75;;;11.66;100.00
58243;BME280;50118;53.232;8.252;2023-02-22T11:25:29;101111.19;;;11.49;100.00
58243;BME280;50118;53.232;8.252;2023-02-22T11:28:06;101106.38;;;11.63;100.00
58243;BME280;50118;53.232;8.252;2023-02-22T11:30:33;101105.50;;;11.91;100.00
58243;BME280;50118;53.232;8.252;2023-02-22T11:33:17;101094.94;;;11.90;99.85
58243;BME280;50118;53.232;8.252;2023-02-22T11:35:58;101091.63;;;11.68;100.00
58243;BME280;50118;53.232;8.252;2023-02-22T11:38:26;101097.19;;;12.04;100.00
58243;BME280;50118;53.232;8.252;2023-02-22T11:43:30;101092.34;;;11.70;99.49
58243;BME280;50118;53.232;8.252;2023-02-22T11:46:25;101089.28;;;11.46;100.00
58243;BME280;50118;53.232;8.252;2023-02-22T11:49:08;101080.38;;;11.74;100.00
58243;BME280;50118;53.232;8.252;2023-02-22T11:59:52;101068.38;;;11.41;100.00
58243;BME280;50118;53.232;8.252;2023-02-22T12:02:46;101059.66;;;11.39;100.00
58243;BME280;50118;53.232;8.252;2023-02-22T12:05:25;101063.41;;;11.66;100.00
58243;BME280;50118;53.232;8.252;2023-02-22T12:11:03;101063.81;;;11.71;100.00
58243;BME280;50118;53.232;8.252;2023-02-22T12:13:36;101069.47;;;11.58;100.00
58243;BME280;50118;53.232;8.252;2023-02-22T12:16:23;101060.06;;;11.54;100.00
58243;BME280;50118;53.232;8.252;2023-02-22T12:20:04;101063.81;;;11.61;100.00
58243;BME280;50118;53.232;8.252;2023-02-22T12:22:13;101055.91;;;11.99;100.00
58243;BME280;50118;53.232;8.252;2023-02-22T12:24:44;101046.00;;;11.71;100.00
58243;BME280;50118;53.232;8.252;2023-02-22T12:27:17;101037.53;;;11.76;100.00
58243;BME280;50118;53.232;8.252;2023-02-22T12:30:03;101033.84;;;11.39;100.00
58243;BME280;50118;53.232;8.252;2023-02-22T12:34:58;101028.59;;;11.57;100.00
58243;BME280;50118;53.232;8.252;2023-02-22T12:37:40;101033.94;;;11.57;100.00
58243;BME280;50118;53.232;8.252;2023-02-22T12:40:20;101030.13;;;11.70;100.00
58243;BME280;50118;53.232;8.252;2023-02-22T12:43:13;101037.56;;;11.66;100.00
58243;BME280;50118;53.232;8.252;2023-02-22T12:53:37;101026.44;;;11.71;100.00
58243;BME280;50118;53.232;8.252;2023-02-22T13:01:33;101028.75;;;12.03;100.00
58243;BME280;50118;53.232;8.252;2023-02-22T13:04:01;101029.63;;;12.22;100.00
58243;BME280;50118;53.232;8.252;2023-02-22T13:25:17;101018.69;;;11.87;100.00
58243;BME280;50118;53.232;8.252;2023-02-22T13:27:50;101025.88;;;11.77;100.00
58243;BME280;50118;53.232;8.252;2023-02-22T13:30:30;101023.34;;;11.75;100.00
58243;BME280;50118;53.232;8.252;2023-02-22T13:36:00;101012.75;;;11.93;100.00
58243;BME280;50118;53.232;8.252;2023-02-22T13:47:43;101008.84;;;11.88;100.00
58243;BME280;50118;53.232;8.252;2023-02-22T13:53:06;100995.22;;;11.81;100.00
58243;BME280;50118;53.232;8.252;2023-02-22T13:55:35;100993.25;;;11.93;100.00
58243;BME280;50118;53.232;8.252;2023-02-22T13:58:09;100985.91;;;11.95;100.00
58243;BME280;50118;53.232;8.252;2023-02-22T14:00:49;100985.91;;;11.57;100.00
58243;BME280;50118;53.232;8.252;2023-02-22T14:03:39;100991.34;;;11.66;100.00
58243;BME280;50118;53.232;8.252;2023-02-22T14:06:09;100989.31;;;11.87;100.00
58243;BME280;50118;53.232;8.252;2023-02-22T14:08:54;100985.38;;;11.91;100.00
58243;BME280;50118;53.232;8.252;2023-02-22T14:16:29;100973.31;;;11.87;100.00
58243;BME280;50118;53.232;8.252;2023-02-22T14:19:12;100969.22;;;11.55;100.00
58243;BME280;50118;53.232;8.252;2023-02-22T14:21:58;100968.59;;;11.71;100.00
58243;BME280;50118;53.232;8.252;2023-02-22T14:24:27;100970.28;;;11.72;100.00
58243;BME280;50118;53.232;8.252;2023-02-22T14:26:58;100966.97;;;11.51;100.00
58243;BME280;50118;53.232;8.252;2023-02-22T14:29:24;100964.88;;;11.54;100.00
58243;BME280;50118;53.232;8.252;2023-02-22T14:34:19;100975.16;;;11.49;100.00
58243;BME280;50118;53.232;8.252;2023-02-22T14:37:06;100959.72;;;11.43;100.00
58243;BME280;50118;53.232;8.252;2023-02-22T14:42:17;100959.16;;;11.49;100.00
58243;BME280;50118;53.232;8.252;2023-02-22T14:44:53;100963.88;;;11.55;100.00
58243;BME280;50118;53.232;8.252;2023-02-22T14:47:33;100963.88;;;11.55;100.00
58243;BME280;50118;53.232;8.252;2023-02-22T14:50:06;100955.81;;;11.37;100.00
58243;BME280;50118;53.232;8.252;2023-02-22T14:52:37;100957.19;;;11.42;100.00
58243;BME280;50118;53.232;8.252;2023-02-22T14:55:23;100957.34;;;11.40;100.00
58243;BME280;50118;53.232;8.252;2023-02-22T14:58:14;100967.88;;;11.32;100.00
58243;BME280;50118;53.232;8.252;2023-02-22T15:00:48;100962.88;;;11.19;100.00